Hovedside
METAR-TAF:

METAR-TAF

Lufthavner :

Kuala Lumpur internasjonale lufthavn

Kuala Lumpur, Malaysia

breddegrad: 02-44N, lengdegrad: 101-42E, høyde over havet: 21 m

Gjeldene værobservasjon

Denne rapporten ble laget for 18 minutter siden, klokken 03:30 UTC
Vind 3 kt fra skiftende retning
Temperatur 28°C
Luftfuktighet 79%
Trykk 1009 hPa
Sikt 10 km eller mer
Få skyer i en høyde av 1800 ft

METAR: WMKK 220330Z VRB03KT 9999 FEW018 28/24 Q1009 NOSIG

Tid: 11:48 (03:48 UTC)

Varsel

Denne rapporten ble laget for 4 timer og 48 minutter siden, klokken 23:00 UTC
Varsel gyldig fra 22. klokken 00 UTC til 23. klokken 06 UTC
Vind 2 kt fra skiftende retning
Sikt: 9000 m
Spredte skyer i en høyde av 3000 ft
Midlertidig
fra 22. klokken 00 UTC til 22. klokken 03 UTC
Sikt: 7000 m
Få skyer i en høyde av 1000 ft
lett regn,

TAF: WMKK 212300Z 2200/2306 VRB02KT 9000 SCT030 TEMPO 2200/2203 7000 -RA FEW010

Værobservasjoner og værvarsel for over 4000 flyplasser (METAR- og TAF-rapporter).

Tilgjengelige stasjoner er representert av de røde og gule prikkene på kartet.

Hold musepekeren over prikken for å se navnet på stasjonen.

Klikk så for å se værobservasjoner og -varsler.

For å forandre kartet kan du klikke på den grønne knappen med svart kryss for å zoome inn, på den grønne knappen med strek for å zoome ut, eller på de grønne pilene for å se tilstøtende kart.


METAR-TAF: